Search for airport 
image banner adimage banner adimage banner ad
image banner ad

CZBF - Bathurst

Located in Bathurst, Canada

ICAO - CZBF, IATA - ZBF

Data provided by Airmate  

General information

Coordinates: N47°37'46" W65°44'25"
Elevation is 196 feet MSL.
Magnetic variation is -17.9899° East
View others Airports in New Brunswick

Operational data

Special qualification required
Current time UTC:
Current local time:
Weather
METAR: CZBF 221634Z AUTO VRB02KT 9SM -RA OVC008 13/12 A2976 RMK SLP082 DENSITY ALT 200FT
TAF: TAF CZBF 221339Z 2214/2302 VRB03KT P6SM BKN012 OVC025 TEMPO 2214/2216 BKN008 OVC012 FM221600 16007KT P6SM -RA SCT005 OVC010 TEMPO 2216/2224 4SM -SHRA BR BKN005 OVC010 FM230000 24005KT P6SM SCT005 OVC020 RMK FCST BASED ON AUTO OBS. NXT FCST BY 222000Z
View NOTAMs / SUP AIP / TFR affecting this airport [VIEW]
Communications frequencies: [VIEW]

Runways:

RWY identifierQFULength (ft)Width (ft)SurfaceLDA (ft)
1082°5613100ASPH5151
28262°5613100ASPH5613

Airport contact information

Address: Bathurst Canada

Other aviation service providers

Flight schools

Evasion Air Aviation Inc

Evasion Air Aviation Inc

Satellite view of CZBF